Time;durP1;ratioP1;P1;durP2;ratioP2;P2;SDS_P1;SDS_P2;PMS_P1;PMS_P2;Temp;Humidity;BMP_temperature;BMP_pressure;BME280_temperature;BME280_humidity;BME280_pressure;Samples;Min_cycle;Max_cycle;Signal;HPM_P1;HPM_P2
2022/12/27 00:01:13;;;;;;;9.02;2.65;;;;;;;1.89;100.00;102048.06;4904364;29;20096;-93
2022/12/27 00:03:52;;;;;;;12.13;3.25;;;;;;;1.87;100.00;102055.41;4901486;29;20044;-93
2022/12/27 00:06:40;;;;;;;7.97;3.00;;;;;;;1.82;100.00;102054.94;4915842;29;20366;-93
2022/12/27 00:09:58;;;;;;;;;;;;;;;;;;;;;
2022/12/27 00:12:36;;;;;;;8.38;2.88;;;;;;;1.89;100.00;102062.34;4888209;29;20071;-94
2022/12/27 00:15:47;;;;;;;8.63;2.72;;;;;;;1.87;100.00;102066.94;4884888;29;20033;-93
2022/12/27 00:18:39;;;;;;;14.52;2.67;;;;;;;1.92;100.00;102064.75;4900679;29;20092;-93
2022/12/27 00:21:22;;;;;;;;;;;;;;;;;;;;;
2022/12/27 00:24:08;;;;;;;;;;;;;;;;;;;;;
2022/12/27 00:27:13;;;;;;;8.38;2.85;;;;;;;1.90;100.00;102071.19;4901542;29;20040;-94
2022/12/27 00:30:13;;;;;;;16.10;3.13;;;;;;;1.89;100.00;102078.38;4885000;29;20045;-94
2022/12/27 00:32:44;;;;;;;11.30;3.33;;;;;;;1.87;100.00;102064.25;4888321;29;20041;-93
2022/12/27 00:35:19;;;;;;;17.03;2.50;;;;;;;1.94;100.00;102075.31;4899931;29;20430;-93
2022/12/27 00:38:06;;;;;;;7.63;2.65;;;;;;;1.87;100.00;102064.25;4854511;29;20037;-93
2022/12/27 00:40:53;;;;;;;;;;;;;;;;;;;;;
2022/12/27 00:43:52;;;;;;;;;;;;;;;;;;;;;
2022/12/27 00:46:36;;;;;;;12.85;3.35;;;;;;;1.90;100.00;102080.06;4920195;29;20407;-94
2022/12/27 00:49:09;;;;;;;5.53;2.40;;;;;;;1.89;100.00;102066.81;4921977;29;20121;-93
2022/12/27 00:51:55;;;;;;;12.55;2.60;;;;;;;1.91;100.00;102078.25;4921589;29;20042;-93
2022/12/27 00:55:15;;;;;;;;;;;;;;;;;;;;;
2022/12/27 01:01:18;;;;;;;9.60;2.80;;;;;;;1.96;100.00;102093.94;4927817;29;20131;-93
2022/12/27 01:07:26;;;;;;;;;;;;;;;;;;;;;
2022/12/27 01:10:02;;;;;;;14.75;2.80;;;;;;;1.89;100.00;102101.59;4934772;29;20050;-93
2022/12/27 01:12:41;;;;;;;15.77;3.22;;;;;;;1.87;100.00;102104.41;4920785;29;20035;-94
2022/12/27 01:15:39;;;;;;;;;;;;;;;;;;;;;
2022/12/27 01:18:34;;;;;;;9.80;2.50;;;;;;;1.87;100.00;102123.16;4938568;29;20046;-94
2022/12/27 01:21:33;;;;;;;14.63;2.83;;;;;;;1.83;100.00;102112.81;4909031;29;20032;-94
2022/12/27 01:24:08;;;;;;;9.57;2.85;;;;;;;1.81;100.00;102112.97;4921586;29;20090;-94
2022/12/27 01:26:54;;;;;;;9.60;2.70;;;;;;;1.88;100.00;102102.59;4906088;29;20476;-94
2022/12/27 01:29:33;;;;;;;7.72;2.38;;;;;;;1.85;100.00;102118.94;4913978;29;20139;-93
2022/12/27 01:32:09;;;;;;;;;;;;;;;;;;;;;
2022/12/27 01:34:45;;;;;;;;;;;;;;;;;;;;;
2022/12/27 01:37:54;;;;;;;8.55;2.75;;;;;;;1.90;100.00;102128.25;4938293;29;20480;-95
2022/12/27 01:40:56;;;;;;;9.60;2.30;;;;;;;1.91;100.00;102124.59;4928775;29;20414;-94
2022/12/27 01:43:39;;;;;;;15.30;3.42;;;;;;;1.91;100.00;102124.59;4917133;29;20044;-93
2022/12/27 01:46:13;;;;;;;9.57;2.47;;;;;;;1.92;100.00;102128.16;4918285;29;20028;-93
2022/12/27 01:49:07;;;;;;;;;;;;;;;;;;;;;
2022/12/27 01:51:42;;;;;;;12.98;2.63;;;;;;;1.97;100.00;102125.09;4917370;29;20515;-93
2022/12/27 01:54:25;;;;;;;13.57;2.45;;;;;;;1.99;100.00;102132.00;4902211;29;20067;-93
2022/12/27 01:57:35;;;;;;;8.18;2.28;;;;;;;1.99;100.00;102144.53;4903544;29;20124;-93
2022/12/27 02:00:47;;;;;;;9.23;2.87;;;;;;;2.00;100.00;102155.13;4916677;29;20032;-93
2022/12/27 02:03:31;;;;;;;;;;;;;;;;;;;;;
2022/12/27 02:06:01;;;;;;;8.30;2.15;;;;;;;1.95;100.00;102153.78;4919382;29;20036;-94
2022/12/27 02:09:02;;;;;;;11.98;2.95;;;;;;;2.02;100.00;102163.03;4917915;29;20039;-94
2022/12/27 02:11:51;;;;;;;7.60;2.50;;;;;;;2.01;100.00;102158.63;4918000;29;20055;-93
2022/12/27 02:14:49;;;;;;;9.50;2.73;;;;;;;2.01;100.00;102147.94;4920010;29;20038;-94
2022/12/27 02:17:58;;;;;;;;;;;;;;;;;;;;;
2022/12/27 02:20:48;;;;;;;;;;;;;;;;;;;;;
2022/12/27 02:24:07;;;;;;;11.38;2.15;;;;;;;2.10;100.00;102161.41;4918310;29;20036;-93
2022/12/27 02:26:59;;;;;;;12.27;2.83;;;;;;;2.10;100.00;102156.06;4917103;29;20485;-94
2022/12/27 02:29:52;;;;;;;11.53;2.20;;;;;;;2.09;100.00;102148.16;4917244;29;20127;-93
2022/12/27 02:32:50;;;;;;;12.15;2.45;;;;;;;2.06;100.00;102159.97;4917076;29;20032;-93
2022/12/27 02:35:51;;;;;;;10.25;2.55;;;;;;;2.07;100.00;102166.19;4917034;29;20056;-93
2022/12/27 02:38:42;;;;;;;15.95;2.65;;;;;;;2.14;100.00;102170.06;4877198;29;20044;-94
2022/12/27 02:53:19;;;;;;;11.55;1.92;;;;;;;2.24;100.00;102181.69;4918111;29;20082;-93
2022/12/27 02:59:20;;;;;;;9.63;1.90;;;;;;;2.24;100.00;102157.59;4918318;29;20047;-94
2022/12/27 03:18:13;;;;;;;;;;;;;;;;;;;;;
2022/12/27 03:26:57;;;;;;;;;;;;;;;;;;;;;
2022/12/27 03:38:11;;;;;;;;;;;;;;;;;;;;;
2022/12/27 03:39:22;;;;;;;;;;;;;;;;;;;;;
2022/12/27 03:47:57;;;;;;;13.38;2.30;;;;;;;2.27;100.00;102194.84;4920747;29;20544;-93
2022/12/27 03:51:05;;;;;;;;;;;;;;;;;;;;;
2022/12/27 03:53:52;;;;;;;9.75;2.28;;;;;;;2.26;100.00;102203.84;4921077;29;20040;-93
2022/12/27 03:56:23;;;;;;;10.13;2.30;;;;;;;2.28;100.00;102209.06;4919195;29;20032;-93
2022/12/27 03:58:52;;;;;;;7.03;1.70;;;;;;;2.24;100.00;102213.84;4904603;29;20028;-93
2022/12/27 04:01:41;;;;;;;11.30;1.55;;;;;;;2.23;100.00;102203.22;4903717;29;20100;-92
2022/12/27 04:04:26;;;;;;;8.15;1.60;;;;;;;2.22;100.00;102206.91;4919572;29;20082;-93
2022/12/27 04:07:18;;;;;;;11.82;1.80;;;;;;;2.24;100.00;102208.47;4919046;29;20056;-93
2022/12/27 04:34:43;;;;;;;8.77;1.85;;;;;;;2.13;100.00;102207.63;4920572;29;20099;-93
2022/12/27 04:37:34;;;;;;;7.13;1.52;;;;;;;2.08;100.00;102216.94;4919348;29;20032;-93
2022/12/27 04:55:39;;;;;;;;;;;;;;;;;;;;;
2022/12/27 04:58:37;;;;;;;9.53;1.97;;;;;;;2.11;100.00;102221.16;4920033;29;20042;-93
2022/12/27 05:14:31;;;;;;;;;;;;;;;;;;;;;
2022/12/27 05:17:15;;;;;;;10.32;2.08;;;;;;;2.20;100.00;102247.19;4917794;29;20048;-94
2022/12/27 05:20:08;;;;;;;;;;;;;;;;;;;;;
2022/12/27 05:28:42;;;;;;;19.77;2.27;;;;;;;2.30;100.00;102244.59;4919033;29;20115;-94
2022/12/27 05:31:15;;;;;;;8.00;2.00;;;;;;;2.31;100.00;102259.69;4904186;29;20028;-94
2022/12/27 05:34:09;;;;;;;10.40;1.45;;;;;;;2.17;100.00;102255.50;4887132;29;20040;-94
2022/12/27 05:36:44;;;;;;;14.23;1.85;;;;;;;2.14;100.00;102260.22;4869974;29;20047;-94
2022/12/27 05:39:20;;;;;;;11.07;1.80;;;;;;;2.17;100.00;102276.91;4886746;29;20071;-94
2022/12/27 05:41:56;;;;;;;;;;;;;;;;;;;;;
2022/12/27 05:47:30;;;;;;;10.50;1.58;;;;;;;2.09;100.00;102290.06;4919022;29;20465;-94
2022/12/27 05:50:10;;;;;;;9.23;1.77;;;;;;;2.00;100.00;102272.91;4902962;29;20051;-93
2022/12/27 05:52:50;;;;;;;7.63;1.77;;;;;;;1.99;100.00;102286.41;4918019;29;20028;-94
2022/12/27 05:55:19;;;;;;;10.70;1.47;;;;;;;1.91;100.00;102287.03;4917357;29;20036;-93
2022/12/27 05:58:04;;;;;;;;;;;;;;;;;;;;;
2022/12/27 06:01:09;;;;;;;;;;;;;;;;;;;;;
2022/12/27 06:04:01;;;;;;;7.43;1.38;;;;;;;1.81;100.00;102296.78;4918377;29;20035;-93
2022/12/27 06:07:04;;;;;;;;;;;;;;;;;;;;;
2022/12/27 06:10:05;;;;;;;;;;;;;;;;;;;;;
2022/12/27 06:12:37;;;;;;;12.63;2.20;;;;;;;1.62;100.00;102305.41;4917180;29;20046;-93
2022/12/27 06:15:13;;;;;;;7.18;1.50;;;;;;;1.58;100.00;102297.63;4917138;29;20032;-93
2022/12/27 06:17:51;;;;;;;7.57;1.95;;;;;;;1.63;100.00;102296.44;4901864;29;20036;-94
2022/12/27 06:20:37;;;;;;;9.48;1.65;;;;;;;1.64;100.00;102306.13;4901874;29;20032;-94
2022/12/27 06:23:40;;;;;;;;;;;;;;;;;;;;;
2022/12/27 06:26:20;;;;;;;16.40;2.45;;;;;;;1.58;100.00;102302.97;4917882;29;20392;-93
2022/12/27 06:29:07;;;;;;;10.57;2.13;;;;;;;1.53;100.00;102293.59;4920567;29;20028;-92
2022/12/27 06:32:01;;;;;;;12.73;2.75;;;;;;;1.49;100.00;102305.50;4915437;29;20037;-92
2022/12/27 06:34:38;;;;;;;6.57;1.80;;;;;;;1.40;100.00;102307.97;4927262;29;20028;-92
2022/12/27 06:37:39;;;;;;;7.80;2.00;;;;;;;1.39;100.00;102305.41;4926663;29;20035;-92
2022/12/27 06:40:24;;;;;;;;;;;;;;;;;;;;;
2022/12/27 06:42:55;;;;;;;9.77;2.58;;;;;;;1.42;100.00;102296.25;4892754;29;20036;-93
2022/12/27 06:45:28;;;;;;;11.95;2.13;;;;;;;1.48;100.00;102309.19;4904930;29;20036;-92
2022/12/27 06:51:03;;;;;;;13.23;2.17;;;;;;;1.46;100.00;102300.41;4921039;29;20393;-95
2022/12/27 06:53:39;;;;;;;15.40;2.58;;;;;;;1.50;100.00;102316.09;4921404;29;20059;-93
2022/12/27 07:02:20;;;;;;;14.43;2.60;;;;;;;1.37;100.00;102300.16;4845129;29;20106;-89
2022/12/27 07:05:16;;;;;;;10.67;2.50;;;;;;;1.37;100.00;102308.19;4828840;29;20514;-92
2022/12/27 07:08:05;;;;;;;9.57;2.40;;;;;;;1.35;100.00;102302.09;4847634;29;20444;-95
2022/12/27 07:10:43;;;;;;;;;;;;;;;;;;;;;
2022/12/27 07:17:13;;;;;;;7.95;2.47;;;;;;;1.43;100.00;102328.25;4827034;29;20038;-91
2022/12/27 07:20:01;;;;;;;15.77;3.53;;;;;;;1.36;100.00;102313.66;4811434;29;20174;-93
2022/12/27 07:23:13;;;;;;;13.88;2.72;;;;;;;1.44;100.00;102329.94;4811811;29;20081;-93
2022/12/27 07:29:46;;;;;;;11.85;3.08;;;;;;;1.52;100.00;102330.22;4827681;29;20575;-92
2022/12/27 09:07:50;;;;;;;17.10;4.95;;;;;;;2.39;100.00;102377.81;4944416;28;20297;-93
2022/12/27 10:05:37;;;;;;;8.00;2.65;;;;;;;3.67;100.00;102379.72;4938081;29;20035;-96
2022/12/27 11:17:57;;;;;;;7.38;1.98;;;;;;;6.19;100.00;102365.72;4934849;28;20059;-80
2022/12/27 11:20:37;;;;;;;8.43;2.38;;;;;;;6.18;100.00;102365.88;4915593;29;20052;-80
2022/12/27 11:23:08;;;;;;;10.18;1.90;;;;;;;6.21;100.00;102366.41;4915953;29;20058;-80
2022/12/27 11:25:44;;;;;;;9.80;3.40;;;;;;;6.28;100.00;102358.59;4918131;29;20127;-80
2022/12/27 11:28:33;;;;;;;9.02;2.10;;;;;;;6.34;100.00;102358.00;4920575;29;20032;-80
2022/12/27 11:31:06;;;;;;;8.43;2.05;;;;;;;6.35;100.00;102359.69;4919443;29;20039;-80
2022/12/27 11:33:46;;;;;;;7.25;2.53;;;;;;;6.37;100.00;102364.94;4920301;29;20524;-80
2022/12/27 11:36:12;;;;;;;8.55;2.40;;;;;;;6.30;100.00;102356.59;4920457;29;20417;-80
2022/12/27 11:38:43;;;;;;;9.70;2.67;;;;;;;6.19;100.00;102363.03;4918968;29;20036;-80
2022/12/27 11:41:16;;;;;;;11.07;2.22;;;;;;;6.10;100.00;102367.47;4920166;29;20392;-80
2022/12/27 11:43:51;;;;;;;9.20;1.95;;;;;;;6.09;100.00;102360.38;4919007;29;20028;-80
2022/12/27 11:46:33;;;;;;;3.70;1.73;;;;;;;6.11;100.00;102362.91;4919170;29;20046;-80
2022/12/27 11:49:02;;;;;;;6.32;2.00;;;;;;;6.11;100.00;102355.72;4919968;29;20036;-80
2022/12/27 11:52:13;;;;;;;7.85;1.70;;;;;;;6.18;100.00;102360.50;4918523;29;20039;-80
2022/12/27 11:54:39;;;;;;;7.85;2.17;;;;;;;6.12;100.00;102359.25;4919636;29;20031;-80
2022/12/27 11:57:04;;;;;;;5.37;1.80;;;;;;;6.13;100.00;102336.69;4917968;29;20044;-80
2022/12/27 11:59:48;;;;;;;6.13;2.00;;;;;;;6.12;100.00;102335.81;4920065;29;20048;-79
2022/12/27 12:02:36;;;;;;;7.07;2.13;;;;;;;6.13;100.00;102347.47;4918425;29;20055;-79
2022/12/27 12:05:26;;;;;;;5.55;2.00;;;;;;;6.09;100.00;102335.28;4918157;29;20043;-80
2022/12/27 12:08:00;;;;;;;8.60;1.98;;;;;;;6.07;100.00;102346.22;4918312;29;20104;-80
2022/12/27 12:10:47;;;;;;;7.27;2.03;;;;;;;6.08;100.00;102338.97;4918024;29;20036;-80
2022/12/27 12:13:42;;;;;;;9.73;1.67;;;;;;;6.01;100.00;102338.72;4919408;29;20028;-80
2022/12/27 12:16:25;;;;;;;5.95;1.75;;;;;;;6.02;100.00;102323.41;4917108;29;20485;-80
2022/12/27 12:19:03;;;;;;;6.82;1.90;;;;;;;6.00;100.00;102318.16;4919838;29;20055;-80
2022/12/27 12:22:06;;;;;;;4.97;1.80;;;;;;;6.09;100.00;102314.56;4918576;29;20044;-80
2022/12/27 12:24:38;;;;;;;7.87;2.23;;;;;;;6.10;100.00;102310.88;4917959;29;20075;-80
2022/12/27 12:27:28;;;;;;;6.45;2.15;;;;;;;6.18;100.00;102315.50;4919260;29;20039;-79
2022/12/27 12:29:53;;;;;;;7.30;2.10;;;;;;;6.29;100.00;102312.63;4918734;29;20032;-80
2022/12/27 12:32:46;;;;;;;8.37;2.00;;;;;;;6.40;100.00;102325.03;4918072;29;20475;-80
2022/12/27 12:35:39;;;;;;;7.70;1.80;;;;;;;6.45;100.00;102322.75;4918321;29;20036;-81
2022/12/27 12:38:53;;;;;;;6.30;2.05;;;;;;;6.52;100.00;102317.56;4918527;29;20040;-81
2022/12/27 12:41:36;;;;;;;6.25;1.75;;;;;;;6.42;100.00;102311.41;4863637;29;20060;-80
2022/12/27 12:44:31;;;;;;;9.30;1.90;;;;;;;6.40;100.00;102306.16;4879387;29;20033;-81
2022/12/27 12:47:17;;;;;;;6.75;2.15;;;;;;;6.39;100.00;102296.41;4913610;29;20056;-81
2022/12/27 12:49:49;;;;;;;7.75;1.80;;;;;;;6.35;100.00;102299.53;4917846;29;20446;-80
2022/12/27 12:52:28;;;;;;;7.18;1.88;;;;;;;6.29;100.00;102290.22;4917679;29;20039;-80
2022/12/27 12:55:00;;;;;;;6.95;1.90;;;;;;;6.27;100.00;102281.41;4917416;29;20028;-80
2022/12/27 12:57:41;;;;;;;9.95;1.73;;;;;;;6.25;100.00;102272.66;4917052;29;20064;-80
2022/12/27 13:00:40;;;;;;;6.05;1.80;;;;;;;6.30;100.00;102264.94;4917264;29;20040;-80
2022/12/27 13:03:21;;;;;;;4.60;1.63;;;;;;;6.32;100.00;102261.09;4917272;29;20040;-80
2022/12/27 13:05:56;;;;;;;10.80;2.08;;;;;;;6.36;100.00;102261.63;4917942;29;20039;-80
2022/12/27 13:08:30;;;;;;;6.40;1.70;;;;;;;6.47;100.00;102247.09;4917408;29;20039;-81
2022/12/27 13:11:15;;;;;;;8.77;2.00;;;;;;;6.46;100.00;102251.63;4916944;29;20036;-80
2022/12/27 13:13:57;;;;;;;6.13;2.05;;;;;;;6.47;100.00;102239.84;4918361;29;20035;-80
2022/12/27 13:16:55;;;;;;;5.47;1.70;;;;;;;6.47;100.00;102237.16;4916746;29;20028;-81
2022/12/27 13:19:34;;;;;;;7.18;1.75;;;;;;;6.47;100.00;102237.16;4915862;29;20485;-80
2022/12/27 13:22:33;;;;;;;6.93;1.50;;;;;;;6.43;100.00;102240.31;4918079;29;20106;-80
2022/12/27 13:25:20;;;;;;;8.90;1.85;;;;;;;6.37;100.00;102230.97;4916962;29;20064;-80
2022/12/27 13:28:13;;;;;;;7.93;1.60;;;;;;;6.27;100.00;102239.13;4917876;29;20039;-80
2022/12/27 13:31:07;;;;;;;12.73;2.28;;;;;;;6.25;100.00;102235.75;4916479;29;20068;-80
2022/12/27 13:33:52;;;;;;;8.45;1.95;;;;;;;6.27;100.00;102236.44;4916841;29;20039;-81
2022/12/27 13:36:27;;;;;;;10.40;2.05;;;;;;;6.29;100.00;102225.53;4917021;29;20055;-80
2022/12/27 13:39:11;;;;;;;6.32;1.80;;;;;;;6.39;100.00;102215.50;4916577;29;20046;-80
2022/12/27 13:41:57;;;;;;;7.22;1.83;;;;;;;6.54;100.00;102221.22;4916839;29;20040;-81
2022/12/27 13:44:40;;;;;;;8.95;1.92;;;;;;;6.67;100.00;102201.91;4917642;29;20111;-80
2022/12/27 13:47:30;;;;;;;6.25;2.25;;;;;;;6.85;100.00;102193.81;4916719;29;20086;-80
2022/12/27 13:50:20;;;;;;;3.85;1.70;;;;;;;7.24;100.00;102193.38;4917164;29;20095;-80
2022/12/27 13:52:54;;;;;;;8.55;1.88;;;;;;;7.60;99.50;102189.66;4916726;29;20065;-80
2022/12/27 13:55:36;;;;;;;4.68;1.40;;;;;;;7.62;97.68;102180.38;4916268;29;20461;-80
2022/12/27 13:58:12;;;;;;;7.07;1.70;;;;;;;7.38;97.77;102175.69;4916705;29;20039;-80
2022/12/27 14:01:06;;;;;;;7.78;1.58;;;;;;;7.26;98.66;102168.91;4917610;29;20032;-80
2022/12/27 14:03:38;;;;;;;9.32;1.80;;;;;;;7.25;99.53;102178.00;4892214;29;20091;-80
2022/12/27 14:06:28;;;;;;;7.55;2.20;;;;;;;7.89;97.45;102179.25;4916213;29;20036;-81
2022/12/27 14:09:17;;;;;;;11.60;1.70;;;;;;;8.19;96.21;102168.88;4917718;29;20107;-80
2022/12/27 14:11:52;;;;;;;8.20;2.13;;;;;;;8.46;93.31;102163.31;4918111;29;20031;-81
2022/12/27 14:14:19;;;;;;;5.90;1.73;;;;;;;8.16;92.81;102174.59;4917308;29;20488;-80
2022/12/27 14:17:12;;;;;;;8.75;2.20;;;;;;;7.69;95.76;102177.84;4916670;29;20123;-80
2022/12/27 14:20:19;;;;;;;11.20;2.00;;;;;;;7.36;97.43;102175.88;4916765;29;20135;-80
2022/12/27 14:23:09;;;;;;;5.35;1.42;;;;;;;7.26;98.37;102174.31;4916263;29;20036;-80
2022/12/27 14:26:12;;;;;;;9.75;1.63;;;;;;;7.36;98.42;102172.31;4917045;29;20039;-80
2022/12/27 14:28:56;;;;;;;7.53;1.77;;;;;;;7.29;98.25;102168.56;4916018;29;20183;-80
2022/12/27 14:31:43;;;;;;;9.85;2.03;;;;;;;7.19;99.14;102174.13;4916528;29;20528;-80
2022/12/27 14:34:27;;;;;;;11.90;1.83;;;;;;;7.19;99.32;102171.41;4916050;29;20096;-80
2022/12/27 14:37:30;;;;;;;7.47;1.85;;;;;;;7.18;99.42;102165.16;4917592;29;20556;-80
2022/12/27 14:40:07;;;;;;;9.55;2.00;;;;;;;7.14;99.24;102155.69;4916975;29;20044;-81
2022/12/27 14:42:53;;;;;;;8.15;2.28;;;;;;;7.22;99.13;102157.59;4917192;29;20036;-80
2022/12/27 14:46:00;;;;;;;4.55;1.88;;;;;;;7.17;99.37;102163.44;4917193;29;20491;-80
2022/12/27 14:48:59;;;;;;;8.60;1.90;;;;;;;7.16;99.31;102161.78;4915263;29;20036;-79
2022/12/27 14:51:49;;;;;;;8.13;1.92;;;;;;;7.11;99.58;102166.78;4917830;29;20084;-80
2022/12/27 14:54:27;;;;;;;11.75;2.05;;;;;;;7.04;99.61;102160.34;4915669;29;20041;-80
2022/12/27 14:57:11;;;;;;;9.15;2.20;;;;;;;7.03;99.75;102156.81;4916121;29;20559;-80
2022/12/27 15:00:02;;;;;;;10.30;2.30;;;;;;;6.95;99.95;102159.47;4916169;29;20044;-80
2022/12/27 15:02:55;;;;;;;8.68;2.10;;;;;;;6.86;100.00;102157.72;4921411;29;20035;-80
2022/12/27 15:05:37;;;;;;;13.45;2.50;;;;;;;6.77;100.00;102147.88;4920698;29;20028;-80
2022/12/27 15:08:47;;;;;;;7.78;2.42;;;;;;;6.67;100.00;102131.78;4920523;29;20544;-80
2022/12/27 15:11:26;;;;;;;9.88;2.42;;;;;;;6.45;100.00;102131.31;4865218;29;20060;-80
2022/12/27 15:14:18;;;;;;;11.25;2.40;;;;;;;6.30;100.00;102131.03;4912879;29;20153;-80
2022/12/27 15:16:43;;;;;;;9.65;2.20;;;;;;;6.16;100.00;102131.56;4919269;29;20036;-80
2022/12/27 15:19:17;;;;;;;11.60;2.37;;;;;;;6.11;100.00;102126.66;4920638;29;20060;-80
2022/12/27 15:21:57;;;;;;;6.40;2.13;;;;;;;6.06;100.00;102128.09;4919546;29;20044;-81
2022/12/27 15:24:30;;;;;;;13.27;2.40;;;;;;;6.04;100.00;102128.25;4920280;29;20051;-80
2022/12/27 15:27:13;;;;;;;12.68;2.67;;;;;;;5.97;100.00;102130.72;4919618;29;20040;-80
2022/12/27 15:29:51;;;;;;;12.20;2.67;;;;;;;5.94;100.00;102133.69;4921100;29;20119;-80
2022/12/27 15:32:46;;;;;;;12.30;2.47;;;;;;;5.93;100.00;102131.97;4918890;29;20043;-82
2022/12/27 15:35:40;;;;;;;10.45;2.22;;;;;;;5.92;100.00;102137.53;4919490;29;20486;-82
2022/12/27 15:38:11;;;;;;;11.70;2.97;;;;;;;5.89;100.00;102145.91;4920502;29;20107;-82
2022/12/27 15:40:44;;;;;;;14.65;2.70;;;;;;;5.87;100.00;102131.75;4920606;29;20098;-82
2022/12/27 15:43:30;;;;;;;7.13;2.78;;;;;;;5.86;100.00;102130.91;4918667;29;20036;-81
2022/12/27 15:46:29;;;;;;;10.63;2.57;;;;;;;5.88;100.00;102133.47;4920408;29;20123;-83
2022/12/27 15:49:19;;;;;;;11.93;2.35;;;;;;;5.85;100.00;102128.38;4919713;29;20421;-82
2022/12/27 15:51:44;;;;;;;11.82;1.95;;;;;;;5.83;100.00;102119.59;4918621;29;20043;-81
2022/12/27 15:54:34;;;;;;;7.97;1.73;;;;;;;5.85;100.00;102123.00;4918482;29;20028;-81
2022/12/27 15:57:37;;;;;;;13.82;2.42;;;;;;;5.79;100.00;102124.44;4919636;29;20032;-81
2022/12/27 16:00:25;;;;;;;8.00;1.95;;;;;;;5.74;100.00;102122.22;4919507;29;20032;-81
2022/12/27 16:02:59;;;;;;;9.13;2.10;;;;;;;5.69;100.00;102118.28;4919690;29;20115;-81
2022/12/27 16:05:24;;;;;;;9.95;2.28;;;;;;;5.67;100.00;102115.75;4919676;29;20066;-81
2022/12/27 16:07:50;;;;;;;7.70;1.80;;;;;;;5.67;100.00;102114.88;4918231;29;20123;-81
2022/12/27 16:10:31;;;;;;;7.18;1.90;;;;;;;5.61;100.00;102110.97;4918278;29;20453;-81
2022/12/27 16:13:11;;;;;;;5.88;1.80;;;;;;;5.53;100.00;102119.78;4917814;29;20111;-80
2022/12/27 16:15:50;;;;;;;12.37;1.90;;;;;;;5.47;100.00;102115.00;4918274;29;20028;-80
2022/12/27 16:18:16;;;;;;;10.32;1.98;;;;;;;5.40;100.00;102114.78;4917650;29;20047;-80
2022/12/27 16:20:53;;;;;;;8.23;2.13;;;;;;;5.38;100.00;102105.97;4919448;29;20032;-80
2022/12/27 16:23:23;;;;;;;7.28;1.70;;;;;;;5.34;100.00;102109.97;4919176;29;20036;-80
2022/12/27 16:25:58;;;;;;;9.33;2.00;;;;;;;5.31;100.00;102106.75;4919091;29;20051;-80
2022/12/27 16:28:28;;;;;;;13.00;2.03;;;;;;;5.26;100.00;102094.56;4919739;29;20116;-80
2022/12/27 16:30:58;;;;;;;9.00;2.00;;;;;;;5.23;100.00;102102.09;4918963;29;20036;-80
2022/12/27 16:33:29;;;;;;;6.43;1.85;;;;;;;5.18;100.00;102094.50;4918407;29;20108;-81
2022/12/27 16:36:14;;;;;;;13.93;2.13;;;;;;;5.15;100.00;102102.84;4919313;29;20028;-80
2022/12/27 16:38:48;;;;;;;9.33;1.80;;;;;;;5.10;100.00;102095.22;4919166;29;20035;-82
2022/12/27 16:41:26;;;;;;;9.68;2.25;;;;;;;5.13;100.00;102091.38;4918845;29;20032;-81
2022/12/27 16:44:00;;;;;;;7.65;2.00;;;;;;;5.11;100.00;102088.00;4919546;29;20036;-81
2022/12/27 16:46:44;;;;;;;14.90;2.20;;;;;;;5.12;100.00;102081.59;4917851;29;20216;-81
2022/12/27 16:49:22;;;;;;;6.95;1.80;;;;;;;5.05;100.00;102085.91;4918625;29;20028;-81
2022/12/27 16:52:13;;;;;;;13.30;2.23;;;;;;;5.00;100.00;102090.88;4919119;29;20042;-81
2022/12/27 16:54:53;;;;;;;6.45;1.85;;;;;;;4.97;100.00;102100.09;4917600;29;20028;-81
2022/12/27 16:57:42;;;;;;;9.18;1.80;;;;;;;5.02;100.00;102089.75;4917737;29;20388;-81
2022/12/27 17:00:23;;;;;;;9.13;2.17;;;;;;;5.01;100.00;102092.59;4902443;29;20131;-81
2022/12/27 17:02:49;;;;;;;6.93;1.88;;;;;;;4.95;100.00;102088.63;4917356;29;20462;-80
2022/12/27 17:05:14;;;;;;;13.80;2.43;;;;;;;4.93;100.00;102093.28;4886268;29;20063;-80
2022/12/27 17:07:51;;;;;;;14.07;2.57;;;;;;;4.92;100.00;102094.31;4918782;29;20123;-81
2022/12/27 17:10:26;;;;;;;12.18;2.55;;;;;;;4.94;100.00;102086.09;4917182;29;20091;-81
2022/12/27 17:12:56;;;;;;;13.13;2.38;;;;;;;4.96;100.00;102084.09;4917610;29;20462;-81
2022/12/27 17:15:23;;;;;;;8.73;1.90;;;;;;;4.99;100.00;102073.03;4917446;29;20059;-80
2022/12/27 17:17:52;;;;;;;8.07;1.90;;;;;;;4.97;100.00;102069.66;4870244;29;20035;-80
2022/12/27 17:20:20;;;;;;;13.80;2.40;;;;;;;4.92;100.00;102068.25;4916655;29;20052;-81
2022/12/27 17:22:46;;;;;;;6.90;2.05;;;;;;;4.88;100.00;102066.84;4900951;29;20035;-81
2022/12/27 17:25:21;;;;;;;9.02;2.38;;;;;;;4.88;100.00;102066.00;4901304;29;20036;-81
2022/12/27 17:28:22;;;;;;;11.97;2.30;;;;;;;4.86;100.00;102068.03;4917363;29;20040;-81
2022/12/27 17:30:48;;;;;;;8.07;2.05;;;;;;;4.86;100.00;102068.03;4917948;29;20054;-80
2022/12/27 17:33:30;;;;;;;7.97;1.97;;;;;;;4.81;100.00;102060.38;4923883;29;20103;-79
2022/12/27 17:36:17;;;;;;;7.43;2.15;;;;;;;4.84;100.00;102056.53;4922332;29;20087;-80
2022/12/27 17:39:14;;;;;;;12.32;2.20;;;;;;;4.80;100.00;102056.00;4917561;29;20432;-80
2022/12/27 17:44:40;;;;;;;6.95;2.45;;;;;;;4.85;100.00;102051.00;4918056;29;20070;-80
2022/12/27 17:47:29;;;;;;;6.97;1.50;;;;;;;4.90;100.00;102051.44;4916826;29;20461;-80
2022/12/27 17:49:59;;;;;;;10.73;2.83;;;;;;;4.87;100.00;102061.63;4916850;29;20040;-80
2022/12/27 17:58:01;;;;;;;10.82;2.50;;;;;;;4.92;100.00;102054.81;4917863;29;20582;-80
2022/12/27 18:00:31;;;;;;;8.98;2.00;;;;;;;4.86;100.00;102058.09;4916580;29;20032;-80
2022/12/27 18:03:00;;;;;;;8.93;2.50;;;;;;;4.84;100.00;102064.59;4916350;29;20483;-80
2022/12/27 18:05:29;;;;;;;13.05;2.65;;;;;;;4.82;100.00;102050.47;4916536;29;20036;-80
2022/12/27 18:08:27;;;;;;;11.38;2.60;;;;;;;4.82;100.00;102063.94;4917390;29;20035;-80
2022/12/27 18:10:52;;;;;;;10.32;2.40;;;;;;;4.85;100.00;102052.88;4912056;29;20044;-81
2022/12/27 18:13:21;;;;;;;11.82;2.40;;;;;;;4.90;100.00;102053.25;4917530;29;20045;-80
2022/12/27 18:15:48;;;;;;;11.60;1.90;;;;;;;4.91;100.00;102066.56;4917439;29;20544;-81
2022/12/27 18:18:26;;;;;;;7.97;2.45;;;;;;;4.85;100.00;102042.09;4917292;29;20477;-81
2022/12/27 18:21:00;;;;;;;7.20;2.17;;;;;;;4.81;100.00;102033.47;4917540;29;20044;-81
2022/12/27 18:23:26;;;;;;;9.07;2.22;;;;;;;4.84;100.00;102038.59;4917061;29;20087;-81
2022/12/27 18:25:55;;;;;;;9.73;2.40;;;;;;;4.78;100.00;102028.41;4916395;29;20028;-81
2022/12/27 18:28:29;;;;;;;9.13;2.45;;;;;;;4.77;100.00;102010.59;4917658;29;20020;-80
2022/12/27 18:31:16;;;;;;;9.73;2.38;;;;;;;4.87;100.00;102008.69;4917653;29;20028;-80
2022/12/27 18:33:48;;;;;;;11.10;2.65;;;;;;;4.85;100.00;102004.47;4915691;29;20362;-81
2022/12/27 18:36:46;;;;;;;7.78;2.03;;;;;;;4.80;100.00;101994.16;4920295;29;20469;-80
2022/12/27 18:39:34;;;;;;;12.02;2.67;;;;;;;4.78;100.00;101992.59;4920954;29;20047;-80
2022/12/27 18:42:04;;;;;;;10.50;2.25;;;;;;;4.81;100.00;101995.00;4919522;29;20123;-81
2022/12/27 18:44:44;;;;;;;11.10;2.40;;;;;;;4.80;100.00;102001.34;4921403;29;20051;-80
2022/12/27 18:47:20;;;;;;;8.63;2.42;;;;;;;4.70;100.00;101996.88;4921171;29;20032;-81
2022/12/27 18:49:51;;;;;;;10.15;1.95;;;;;;;4.67;100.00;101989.13;4920081;29;20123;-80
2022/12/27 18:52:23;;;;;;;5.65;1.73;;;;;;;4.76;100.00;101979.31;4920815;29;20035;-80
2022/12/27 18:54:49;;;;;;;8.90;2.80;;;;;;;4.66;100.00;101984.72;4920350;29;20071;-81
2022/12/27 18:57:30;;;;;;;8.63;2.28;;;;;;;4.63;100.00;101995.78;4920859;29;20063;-80
2022/12/27 19:00:26;;;;;;;8.48;1.98;;;;;;;4.56;100.00;101991.97;4919887;29;20441;-80
2022/12/27 19:02:53;;;;;;;10.38;2.78;;;;;;;4.57;100.00;101973.00;4907741;29;20047;-81
2022/12/27 19:05:19;;;;;;;8.63;1.95;;;;;;;4.55;100.00;101964.25;4919170;29;20036;-81
2022/12/27 19:08:01;;;;;;;9.23;2.87;;;;;;;4.47;100.00;101964.16;4919435;29;20121;-81
2022/12/27 19:10:32;;;;;;;7.97;2.47;;;;;;;4.39;100.00;101969.44;4919655;29;20060;-81
2022/12/27 19:12:58;;;;;;;12.45;3.10;;;;;;;4.39;100.00;101967.56;4919772;29;20111;-81
2022/12/27 19:15:27;;;;;;;10.17;2.17;;;;;;;4.37;100.00;101966.03;4918997;29;20028;-81
2022/12/27 19:18:05;;;;;;;11.13;2.55;;;;;;;4.33;100.00;101961.97;4920661;29;20032;-81
2022/12/27 19:20:34;;;;;;;7.75;3.00;;;;;;;4.35;100.00;101958.09;4919273;29;20052;-81
2022/12/27 19:23:03;;;;;;;8.23;2.63;;;;;;;4.31;100.00;101964.78;4919159;29;20560;-80